createdAt,value
2022-09-09T00:00:15.956Z,11.8
2022-09-09T00:01:09.584Z,11.8
2022-09-09T00:02:11.952Z,11.8
2022-09-09T00:03:16.160Z,11.8
2022-09-09T00:04:12.564Z,11.8
2022-09-09T00:05:11.675Z,11.8
2022-09-09T00:06:12.315Z,11.8
2022-09-09T00:07:15.244Z,11.8
2022-09-09T00:08:18.507Z,11.7
2022-09-09T00:09:16.106Z,11.8
2022-09-09T00:10:07.662Z,11.8
2022-09-09T00:11:14.336Z,11.8
2022-09-09T00:12:14.203Z,11.8
2022-09-09T00:13:17.743Z,11.9
2022-09-09T00:14:09.917Z,11.9
2022-09-09T00:15:22.585Z,11.9
2022-09-09T00:16:12.629Z,11.9
2022-09-09T00:17:15.925Z,12
2022-09-09T00:18:10.675Z,12
2022-09-09T00:19:13.123Z,12.1
2022-09-09T00:20:16.798Z,12.1
2022-09-09T00:21:08.598Z,12.1
2022-09-09T00:22:16.952Z,12.1
2022-09-09T00:23:10.552Z,12.1
2022-09-09T00:24:18.575Z,12
2022-09-09T00:25:09.009Z,12
2022-09-09T00:26:17.219Z,11.9
2022-09-09T00:27:07.815Z,11.9
2022-09-09T00:28:12.355Z,11.8
2022-09-09T00:29:07.713Z,11.8
2022-09-09T00:30:13.379Z,11.9
2022-09-09T00:31:16.377Z,11.9
2022-09-09T00:32:14.396Z,11.9
2022-09-09T00:33:15.053Z,11.9
2022-09-09T00:34:22.773Z,12
2022-09-09T00:35:07.433Z,12
2022-09-09T00:36:16.036Z,11.8
2022-09-09T00:37:13.345Z,11.8
2022-09-09T00:38:14.767Z,11.9
2022-09-09T00:39:15.852Z,11.8
2022-09-09T00:40:09.261Z,11.8
2022-09-09T00:41:20.550Z,11.9
2022-09-09T00:42:07.048Z,11.9
2022-09-09T00:43:12.343Z,11.9
2022-09-09T00:44:16.181Z,12.1
2022-09-09T00:45:13.266Z,12
2022-09-09T00:46:11.310Z,12
2022-09-09T00:47:15.682Z,12.1
2022-09-09T00:48:11.348Z,12.1
2022-09-09T00:49:17.960Z,12.1
2022-09-09T00:50:06.137Z,12.1
2022-09-09T00:51:13.981Z,12.1
2022-09-09T00:52:11.498Z,12.1
2022-09-09T00:53:17.880Z,12.1
2022-09-09T00:54:14.038Z,12.1
2022-09-09T00:55:09.603Z,12.2
2022-09-09T00:56:24.037Z,12.2
2022-09-09T00:57:09.339Z,12.2
2022-09-09T00:58:11.760Z,12.1
2022-09-09T00:59:14.699Z,12.1
2022-09-09T01:00:20.391Z,11.9
2022-09-09T01:01:17.912Z,11.9
2022-09-09T01:02:09.183Z,11.9
2022-09-09T01:03:17.344Z,11.9
2022-09-09T01:04:13.973Z,11.9
2022-09-09T01:05:09.698Z,11.9
2022-09-09T01:06:15.868Z,11.7
2022-09-09T01:07:16.325Z,11.7
2022-09-09T01:08:15.301Z,11.5
2022-09-09T01:09:15.826Z,11.4
2022-09-09T01:10:09.530Z,11.4
2022-09-09T01:11:13.718Z,11.4
2022-09-09T01:12:07.256Z,11.4
2022-09-09T01:13:13.143Z,11.4
2022-09-09T01:14:11.231Z,11.4
2022-09-09T01:15:14.132Z,11.4
2022-09-09T01:16:11.194Z,11.4
2022-09-09T01:17:12.173Z,11.4
2022-09-09T01:18:15.695Z,11.4
2022-09-09T01:19:16.125Z,11.5
2022-09-09T01:20:11.503Z,11.5
2022-09-09T01:21:15.945Z,11.5
2022-09-09T01:22:07.015Z,11.6
2022-09-09T01:23:15.675Z,11.6
2022-09-09T01:24:13.216Z,11.6
2022-09-09T01:25:19.368Z,11.6
2022-09-09T01:26:08.909Z,11.6
2022-09-09T01:27:12.177Z,11.6
2022-09-09T01:28:14.062Z,11.6
2022-09-09T01:29:17.586Z,11.7
2022-09-09T01:30:13.851Z,11.7
2022-09-09T01:31:13.896Z,11.7
2022-09-09T01:32:15.732Z,11.6
2022-09-09T01:33:13.798Z,11.4
2022-09-09T01:34:16.956Z,11.4
2022-09-09T01:35:15.266Z,11.5
2022-09-09T01:36:14.194Z,11.5
2022-09-09T01:37:13.614Z,11.6
2022-09-09T01:38:18.503Z,11.6
2022-09-09T01:39:09.518Z,11.6
2022-09-09T01:40:12.035Z,11.4
2022-09-09T01:41:15.276Z,11.4
2022-09-09T01:42:16.760Z,11.5
2022-09-09T01:43:11.247Z,11.5
2022-09-09T01:44:16.874Z,11.4
2022-09-09T01:45:07.697Z,11.4
2022-09-09T01:46:17.051Z,11.4
2022-09-09T01:47:11.718Z,11.4
2022-09-09T01:48:15.786Z,11.4
2022-09-09T01:49:06.787Z,11.4
2022-09-09T01:50:15.463Z,11.4
2022-09-09T01:51:12.984Z,11.4
2022-09-09T01:52:15.833Z,11.5
2022-09-09T01:53:07.423Z,11.5
2022-09-09T01:54:18.432Z,11.6
2022-09-09T01:55:12.247Z,11.6
2022-09-09T01:56:17.330Z,11.6
2022-09-09T01:57:06.989Z,11.6
2022-09-09T01:58:16.555Z,11.6
2022-09-09T01:59:06.099Z,11.7
2022-09-09T02:00:14.650Z,11.8
2022-09-09T02:01:13.791Z,11.6
2022-09-09T02:02:22.433Z,11.6
2022-09-09T02:03:08.848Z,11.6
2022-09-09T02:04:13.104Z,11.6
2022-09-09T02:05:14.654Z,11.6
2022-09-09T02:06:13.176Z,11.5
2022-09-09T02:07:18.700Z,11.4
2022-09-09T02:08:10.122Z,11.4
2022-09-09T02:09:16.090Z,11.5
2022-09-09T02:10:08.882Z,11.5
2022-09-09T02:11:15.813Z,11.4
2022-09-09T02:12:08.447Z,11.4
2022-09-09T02:13:13.777Z,11.4
2022-09-09T02:14:11.637Z,11.4
2022-09-09T02:15:18.045Z,11.4
2022-09-09T02:16:11.853Z,11.4
2022-09-09T02:17:14.818Z,11.4
2022-09-09T02:18:12.419Z,11.4
2022-09-09T02:19:15.117Z,11.4
2022-09-09T02:20:15.313Z,11.4
2022-09-09T02:21:10.757Z,11.4
2022-09-09T02:22:17.390Z,11.6
2022-09-09T02:23:07.742Z,11.6
2022-09-09T02:24:15.982Z,11.6
2022-09-09T02:25:13.451Z,11.6
2022-09-09T02:26:13.367Z,11.5
2022-09-09T02:27:14.487Z,11.6
2022-09-09T02:28:10.741Z,11.6
2022-09-09T02:29:16.633Z,11.5
2022-09-09T02:30:15.600Z,11.4
2022-09-09T02:31:16.477Z,11.3
2022-09-09T02:32:07.744Z,11.3
2022-09-09T02:33:13.381Z,11.4
2022-09-09T02:34:14.132Z,11.4
2022-09-09T02:35:17.004Z,11.4
2022-09-09T02:36:10.710Z,11.4
2022-09-09T02:37:18.936Z,11.5
2022-09-09T02:38:09.072Z,11.5
2022-09-09T02:39:15.532Z,11.5
2022-09-09T02:40:08.884Z,11.5
2022-09-09T02:41:14.350Z,11.4
2022-09-09T02:42:08.890Z,11.4
2022-09-09T02:43:18.434Z,11.4
2022-09-09T02:44:12.313Z,11.4
2022-09-09T02:45:18.135Z,11.4
2022-09-09T02:46:07.834Z,11.4
2022-09-09T02:47:19.676Z,11.3
2022-09-09T02:48:08.607Z,11.3
2022-09-09T02:49:13.113Z,11.4
2022-09-09T02:50:11.536Z,11.4
2022-09-09T02:51:17.301Z,11.4
2022-09-09T02:52:11.735Z,11.4
2022-09-09T02:53:15.331Z,11.3
2022-09-09T02:54:08.475Z,11.3
2022-09-09T02:55:19.249Z,11.4
2022-09-09T02:56:06.925Z,11.4
2022-09-09T02:57:14.354Z,11.3
2022-09-09T02:58:13.411Z,11.3
2022-09-09T02:59:14.285Z,11.3
2022-09-09T03:00:19.567Z,11.4
2022-09-09T03:01:07.206Z,11.4
2022-09-09T03:02:15.431Z,11.3
2022-09-09T03:03:08.059Z,11.4
2022-09-09T03:04:15.172Z,11.4
2022-09-09T03:05:11.937Z,11.4
2022-09-09T03:06:15.553Z,11.4
2022-09-09T03:07:08.862Z,11.4
2022-09-09T03:08:16.348Z,11.6
2022-09-09T03:09:13.428Z,11.6
2022-09-09T03:10:12.560Z,11.4
2022-09-09T03:11:15.707Z,11.4
2022-09-09T03:12:14.246Z,11.3
2022-09-09T03:13:10.618Z,11.3
2022-09-09T03:14:18.324Z,11.3
2022-09-09T03:15:15.105Z,11.3
2022-09-09T03:16:15.990Z,11.3
2022-09-09T03:17:09.160Z,11.3
2022-09-09T03:18:17.156Z,11.3
2022-09-09T03:19:10.762Z,11.3
2022-09-09T03:20:17.372Z,11.2
2022-09-09T03:21:09.614Z,11.2
2022-09-09T03:22:15.916Z,11.2
2022-09-09T03:23:15.762Z,11.2
2022-09-09T03:24:13.198Z,11.1
2022-09-09T03:25:09.269Z,11.1
2022-09-09T03:26:14.136Z,11.1
2022-09-09T03:27:09.053Z,11.1
2022-09-09T03:28:15.637Z,11.1
2022-09-09T03:29:14.681Z,11.1
2022-09-09T03:30:13.447Z,11.2
2022-09-09T03:31:10.931Z,11.2
2022-09-09T03:32:11.680Z,11.3
2022-09-09T03:33:11.682Z,11.4
2022-09-09T03:34:08.479Z,11.5
2022-09-09T03:35:19.421Z,11.5
2022-09-09T03:36:08.663Z,11.5
2022-09-09T03:37:17.500Z,11.6
2022-09-09T03:38:07.653Z,11.6
2022-09-09T03:39:19.403Z,11.6
2022-09-09T03:40:08.733Z,11.6
2022-09-09T03:41:09.459Z,11.6
2022-09-09T03:42:15.667Z,11.5
2022-09-09T03:43:14.258Z,11.6
2022-09-09T03:44:17.304Z,11.6
2022-09-09T03:45:15.498Z,11.6
2022-09-09T03:46:19.312Z,11.4
2022-09-09T03:47:07.951Z,11.4
2022-09-09T03:48:15.211Z,11.6
2022-09-09T03:49:16.167Z,11.6
2022-09-09T03:50:19.505Z,11.6
2022-09-09T03:51:08.279Z,11.6
2022-09-09T03:52:13.622Z,11.6
2022-09-09T03:53:12.211Z,11.5
2022-09-09T03:54:14.764Z,11.5
2022-09-09T03:55:13.971Z,11.5
2022-09-09T03:56:15.513Z,11.4
2022-09-09T03:57:09.011Z,11.4
2022-09-09T03:58:12.081Z,11.4
2022-09-09T03:59:14.081Z,11.4
2022-09-09T04:00:16.470Z,11.4
2022-09-09T04:01:07.860Z,11.4
2022-09-09T04:02:15.807Z,11.3
2022-09-09T04:03:11.344Z,11.3
2022-09-09T04:04:17.232Z,11.3
2022-09-09T04:05:17.627Z,11.3
2022-09-09T04:06:17.398Z,11.3
2022-09-09T04:07:21.182Z,11.3
2022-09-09T04:08:06.886Z,11.3
2022-09-09T04:09:18.723Z,11.3
2022-09-09T04:10:07.924Z,11.2
2022-09-09T04:11:15.543Z,11.1
2022-09-09T04:12:17.207Z,11.1
2022-09-09T04:13:16.547Z,11.1
2022-09-09T04:14:14.709Z,11.1
2022-09-09T04:15:16.601Z,11.1
2022-09-09T04:16:09.443Z,11
2022-09-09T04:17:14.846Z,11
2022-09-09T04:18:14.342Z,11.1
2022-09-09T04:19:08.991Z,11.1
2022-09-09T04:20:15.628Z,11.1
2022-09-09T04:21:13.854Z,11.1
2022-09-09T04:22:11.987Z,11.1
2022-09-09T04:23:15.302Z,11.1
2022-09-09T04:24:13.094Z,11
2022-09-09T04:25:16.887Z,11
2022-09-09T04:26:07.377Z,11
2022-09-09T04:27:22.277Z,10.9
2022-09-09T04:28:07.617Z,10.9
2022-09-09T04:29:19.280Z,10.9
2022-09-09T04:30:12.266Z,10.9
2022-09-09T04:31:22.452Z,10.8
2022-09-09T04:32:07.167Z,10.8
2022-09-09T04:33:10.355Z,10.8
2022-09-09T04:34:15.422Z,10.8
2022-09-09T04:35:16.480Z,10.8
2022-09-09T04:36:23.237Z,10.8
2022-09-09T04:37:14.230Z,10.8
2022-09-09T04:38:10.880Z,10.8
2022-09-09T04:39:17.257Z,10.9
2022-09-09T04:40:08.522Z,10.9
2022-09-09T04:41:12.896Z,10.8
2022-09-09T04:42:16.513Z,10.9
2022-09-09T04:43:17.116Z,10.9
2022-09-09T04:44:12.372Z,10.8
2022-09-09T04:45:15.726Z,10.8
2022-09-09T04:46:14.332Z,10.9
2022-09-09T04:47:15.023Z,10.9
2022-09-09T04:48:14.908Z,10.9
2022-09-09T04:49:15.274Z,10.8
2022-09-09T04:50:15.494Z,10.8
2022-09-09T04:51:12.999Z,10.8
2022-09-09T04:52:14.943Z,10.9
2022-09-09T04:53:09.681Z,10.9
2022-09-09T04:54:12.363Z,11
2022-09-09T04:55:18.255Z,11
2022-09-09T04:56:08.833Z,11
2022-09-09T04:57:16.590Z,11
2022-09-09T04:58:14.193Z,11
2022-09-09T04:59:13.354Z,11
2022-09-09T05:00:14.617Z,11
2022-09-09T05:01:13.344Z,11
2022-09-09T05:02:13.364Z,11.1
2022-09-09T05:03:15.918Z,11.1
2022-09-09T05:04:16.195Z,11.1
2022-09-09T05:05:18.087Z,10.9
2022-09-09T05:06:15.584Z,11
2022-09-09T05:07:14.395Z,10.9
2022-09-09T05:08:15.510Z,10.9
2022-09-09T05:09:16.684Z,11
2022-09-09T05:10:09.609Z,11
2022-09-09T05:11:16.011Z,11
2022-09-09T05:12:13.042Z,11
2022-09-09T05:13:13.236Z,10.9
2022-09-09T05:14:16.028Z,10.9
2022-09-09T05:15:14.705Z,11.1
2022-09-09T05:16:16.226Z,11.1
2022-09-09T05:17:14.405Z,11
2022-09-09T05:18:07.819Z,11
2022-09-09T05:19:15.678Z,11
2022-09-09T05:20:17.325Z,11
2022-09-09T05:21:14.175Z,11
2022-09-09T05:22:12.371Z,11
2022-09-09T05:23:12.516Z,10.9
2022-09-09T05:24:14.089Z,10.8
2022-09-09T05:25:12.567Z,10.8
2022-09-09T05:26:16.668Z,10.9
2022-09-09T05:27:14.699Z,10.9
2022-09-09T05:28:14.241Z,10.9
2022-09-09T05:29:14.177Z,10.9
2022-09-09T05:30:14.312Z,11
2022-09-09T05:31:18.498Z,11
2022-09-09T05:32:15.443Z,10.9
2022-09-09T05:33:15.273Z,10.9
2022-09-09T05:34:11.196Z,10.8
2022-09-09T05:35:14.656Z,10.8
2022-09-09T05:36:15.192Z,10.8
2022-09-09T05:37:15.756Z,10.8
2022-09-09T05:38:15.776Z,10.8
2022-09-09T05:39:12.794Z,10.8
2022-09-09T05:40:13.314Z,10.9
2022-09-09T05:41:15.461Z,10.9
2022-09-09T05:42:11.542Z,10.8
2022-09-09T05:43:13.959Z,10.9
2022-09-09T05:44:14.968Z,10.9
2022-09-09T05:45:17.208Z,10.9
2022-09-09T05:46:15.413Z,11
2022-09-09T05:47:15.497Z,11.1
2022-09-09T05:48:14.879Z,11
2022-09-09T05:49:14.563Z,11.1
2022-09-09T05:50:13.083Z,11.2
2022-09-09T05:51:14.371Z,11.2
2022-09-09T05:52:13.602Z,11.2
2022-09-09T05:53:13.337Z,11.1
2022-09-09T05:54:14.201Z,11.2
2022-09-09T05:55:17.907Z,11.2
2022-09-09T05:56:09.332Z,11.2
2022-09-09T05:57:13.986Z,11.1
2022-09-09T05:58:15.525Z,11
2022-09-09T05:59:11.674Z,11
2022-09-09T06:00:14.860Z,11.1
2022-09-09T06:01:14.990Z,11.1
2022-09-09T06:02:13.168Z,11.1
2022-09-09T06:03:15.358Z,11.1
2022-09-09T06:04:13.594Z,11.4
2022-09-09T06:05:16.694Z,11.4
2022-09-09T06:06:08.969Z,11.4
2022-09-09T06:07:13.816Z,11.4
2022-09-09T06:08:14.788Z,11.6
2022-09-09T06:09:16.072Z,11.6
2022-09-09T06:10:10.740Z,11.6
2022-09-09T06:11:15.040Z,11.6
2022-09-09T06:12:13.424Z,11.6
2022-09-09T06:13:12.046Z,11.6
2022-09-09T06:14:15.052Z,11.6
2022-09-09T06:15:07.164Z,11.6
2022-09-09T06:16:16.977Z,11.4
2022-09-09T06:17:07.071Z,11.5
2022-09-09T06:18:13.915Z,11.6
2022-09-09T06:19:13.004Z,11.6
2022-09-09T06:20:16.272Z,11.6
2022-09-09T06:21:13.199Z,11.6
2022-09-09T06:22:12.722Z,11.6
2022-09-09T06:23:13.453Z,11.4
2022-09-09T06:24:13.556Z,11.6
2022-09-09T06:25:13.083Z,11.6
2022-09-09T06:26:15.329Z,11.8
2022-09-09T06:27:13.674Z,11.6
2022-09-09T06:28:12.992Z,11.7
2022-09-09T06:29:06.965Z,11.7
2022-09-09T06:30:10.760Z,11.6
2022-09-09T06:31:12.370Z,11.7
2022-09-09T06:32:13.039Z,11.6
2022-09-09T06:33:15.424Z,11.6
2022-09-09T06:34:12.583Z,11.6
2022-09-09T06:35:15.351Z,11.6
2022-09-09T06:36:12.821Z,11.6
2022-09-09T06:37:13.733Z,11.6
2022-09-09T06:38:14.140Z,11.6
2022-09-09T06:39:14.924Z,11.6
2022-09-09T06:40:07.836Z,11.6
2022-09-09T06:41:17.994Z,11.7
2022-09-09T06:42:12.363Z,11.7
2022-09-09T06:43:13.105Z,11.8
2022-09-09T06:44:16.781Z,11.8
2022-09-09T06:45:17.834Z,11.8
2022-09-09T06:46:09.594Z,11.8
2022-09-09T06:47:15.089Z,11.7
2022-09-09T06:48:14.314Z,11.8
2022-09-09T06:49:11.454Z,11.8
2022-09-09T06:50:20.770Z,11.9
2022-09-09T06:51:07.312Z,11.9
2022-09-09T06:52:16.260Z,11.9
2022-09-09T06:53:19.477Z,11.8
2022-09-09T06:54:07.323Z,11.8
2022-09-09T06:55:11.504Z,11.9
2022-09-09T06:56:17.421Z,11.9
2022-09-09T06:57:33.997Z,11.9
2022-09-09T06:58:08.937Z,11.9
2022-09-09T06:59:15.539Z,11.9
2022-09-09T07:00:13.100Z,11.9
2022-09-09T07:01:11.702Z,11.9
2022-09-09T07:02:24.800Z,11.9
2022-09-09T07:03:06.426Z,11.9
2022-09-09T07:04:14.723Z,11.9
2022-09-09T07:05:13.391Z,11.9
2022-09-09T07:06:13.423Z,11.9
2022-09-09T07:07:10.579Z,11.9
2022-09-09T07:08:15.774Z,12
2022-09-09T07:09:15.970Z,12
2022-09-09T07:10:10.424Z,12
2022-09-09T07:11:12.674Z,12.1
2022-09-09T07:12:16.045Z,12.1
2022-09-09T07:13:23.451Z,12.1
2022-09-09T07:14:08.453Z,12.1
2022-09-09T07:15:16.155Z,11.9
2022-09-09T07:16:14.038Z,12
2022-09-09T07:17:14.750Z,12.1
2022-09-09T07:18:10.737Z,12.1
2022-09-09T07:19:15.079Z,11.9
2022-09-09T07:20:12.180Z,11.9
2022-09-09T07:21:14.711Z,12.1
2022-09-09T07:22:12.012Z,12
2022-09-09T07:23:12.343Z,12.1
2022-09-09T07:24:13.702Z,12.2
2022-09-09T07:25:15.777Z,12.1
2022-09-09T07:26:13.956Z,12.1
2022-09-09T07:27:15.520Z,12.1
2022-09-09T07:28:09.019Z,12.1
2022-09-09T07:29:20.526Z,12.3
2022-09-09T07:30:19.848Z,12.3
2022-09-09T07:31:06.556Z,12.3
2022-09-09T07:32:13.830Z,12.3
2022-09-09T07:33:15.455Z,12.3
2022-09-09T07:34:19.310Z,12.3
2022-09-09T07:35:07.588Z,12.3
2022-09-09T07:36:17.368Z,12.3
2022-09-09T07:37:14.825Z,12.4
2022-09-09T07:38:14.718Z,12.5
2022-09-09T07:39:14.854Z,12.5
2022-09-09T07:40:08.980Z,12.4
2022-09-09T07:41:18.348Z,12.4
2022-09-09T07:42:12.944Z,12.4
2022-09-09T07:43:14.360Z,12.4
2022-09-09T07:44:12.908Z,12.5
2022-09-09T07:45:17.854Z,12.6
2022-09-09T07:46:15.113Z,12.6
2022-09-09T07:47:16.412Z,12.6
2022-09-09T07:48:08.846Z,12.6
2022-09-09T07:49:08.016Z,12.7
2022-09-09T07:50:19.785Z,12.7
2022-09-09T07:51:16.057Z,12.7
2022-09-09T07:52:19.456Z,12.8
2022-09-09T07:53:18.944Z,12.8
2022-09-09T07:54:07.049Z,12.8
2022-09-09T07:55:17.931Z,12.9
2022-09-09T07:56:14.052Z,12.9
2022-09-09T07:57:19.452Z,13
2022-09-09T07:58:09.484Z,13
2022-09-09T07:59:14.980Z,13.1
2022-09-09T08:00:13.870Z,13.1
2022-09-09T08:01:17.364Z,13.2
2022-09-09T08:02:09.835Z,13.2
2022-09-09T08:03:05.984Z,13.3
2022-09-09T08:04:14.558Z,13.3
2022-09-09T08:05:12.018Z,13.3
2022-09-09T08:06:14.783Z,13.3
2022-09-09T08:07:16.424Z,13.4
2022-09-09T08:08:12.178Z,13.4
2022-09-09T08:09:13.107Z,13.5
2022-09-09T08:10:15.259Z,13.6
2022-09-09T08:11:14.031Z,13.6
2022-09-09T08:12:13.603Z,13.6
2022-09-09T08:13:18.105Z,13.7
2022-09-09T08:14:11.175Z,13.7
2022-09-09T08:15:17.625Z,13.7
2022-09-09T08:16:07.257Z,13.7
2022-09-09T08:17:16.426Z,13.8
2022-09-09T08:18:13.824Z,13.8
2022-09-09T08:19:14.506Z,13.8
2022-09-09T08:20:15.535Z,13.8
2022-09-09T08:21:15.972Z,13.8
2022-09-09T08:22:09.080Z,13.8
2022-09-09T08:23:15.107Z,13.8
2022-09-09T08:24:11.909Z,13.9
2022-09-09T08:25:16.514Z,13.9
2022-09-09T08:26:13.039Z,13.9
2022-09-09T08:27:13.271Z,14
2022-09-09T08:28:19.797Z,14
2022-09-09T08:29:13.785Z,14
2022-09-09T08:30:15.492Z,14
2022-09-09T08:31:13.718Z,13.9
2022-09-09T08:32:14.503Z,13.9
2022-09-09T08:33:07.612Z,13.8
2022-09-09T08:34:16.409Z,13.9
2022-09-09T08:35:12.839Z,13.9
2022-09-09T08:36:15.980Z,13.9
2022-09-09T08:37:14.381Z,13.9
2022-09-09T08:38:13.778Z,13.9
2022-09-09T08:39:15.944Z,13.9
2022-09-09T08:40:08.237Z,13.9
2022-09-09T08:41:11.948Z,13.9
2022-09-09T08:42:15.998Z,13.9
2022-09-09T08:43:17.462Z,13.9
2022-09-09T08:44:13.001Z,13.9
2022-09-09T08:45:12.048Z,13.9
2022-09-09T08:46:13.469Z,13.9
2022-09-09T08:47:13.390Z,13.9
2022-09-09T08:48:13.545Z,13.9
2022-09-09T08:49:13.854Z,13.9
2022-09-09T08:50:15.942Z,13.9
2022-09-09T08:51:14.324Z,13.9
2022-09-09T08:52:14.164Z,14
2022-09-09T08:53:14.355Z,13.9
2022-09-09T08:54:12.331Z,13.9
2022-09-09T08:55:15.001Z,14
2022-09-09T08:56:11.800Z,14
2022-09-09T08:57:15.088Z,14
2022-09-09T08:58:14.663Z,14
2022-09-09T08:59:14.189Z,14.1
2022-09-09T09:00:14.246Z,14
2022-09-09T09:01:13.730Z,14
2022-09-09T09:02:16.458Z,14.1
2022-09-09T09:03:15.816Z,14.1
2022-09-09T09:04:07.232Z,14.1
2022-09-09T09:05:13.904Z,14.2
2022-09-09T09:06:12.832Z,14.3
2022-09-09T09:07:13.283Z,14.3
2022-09-09T09:08:14.945Z,14.3
2022-09-09T09:09:15.391Z,14.4
2022-09-09T09:10:37.934Z,14.4
2022-09-09T09:11:16.192Z,14.4
2022-09-09T09:12:12.196Z,14.4
2022-09-09T09:13:13.595Z,14.5
2022-09-09T09:14:14.880Z,14.5
2022-09-09T09:15:13.345Z,14.5
2022-09-09T09:16:15.288Z,14.5
2022-09-09T09:17:13.833Z,14.6
2022-09-09T09:18:13.883Z,14.6
2022-09-09T09:19:15.387Z,14.6
2022-09-09T09:20:17.621Z,14.6
2022-09-09T09:21:09.977Z,14.6
2022-09-09T09:22:16.651Z,14.6
2022-09-09T09:23:13.619Z,14.6
2022-09-09T09:24:16.539Z,14.6
2022-09-09T09:25:15.098Z,14.6
2022-09-09T09:26:10.650Z,14.6
2022-09-09T09:27:14.010Z,14.5
2022-09-09T09:28:14.587Z,14.5
2022-09-09T09:29:07.995Z,14.5
2022-09-09T09:30:28.899Z,14.5
2022-09-09T09:31:12.631Z,14.5
2022-09-09T09:32:15.467Z,14.5
2022-09-09T09:33:13.007Z,14.4
2022-09-09T09:34:14.703Z,14.4
2022-09-09T09:35:15.739Z,14.4
2022-09-09T09:36:15.821Z,14.5
2022-09-09T09:37:07.433Z,14.4
2022-09-09T09:40:11.888Z,14.5
2022-09-09T09:41:14.170Z,14.5
2022-09-09T09:42:13.087Z,14.5
2022-09-09T09:43:15.327Z,14.5
2022-09-09T09:44:12.304Z,14.5
2022-09-09T09:45:10.242Z,14.6
2022-09-09T09:46:17.812Z,14.6
2022-09-09T09:47:13.461Z,14.6
2022-09-09T09:48:14.113Z,14.6
2022-09-09T09:49:13.071Z,14.6
2022-09-09T09:50:18.077Z,14.6
2022-09-09T09:51:13.719Z,14.6
2022-09-09T09:52:18.359Z,14.6
2022-09-09T09:53:09.718Z,14.6
2022-09-09T09:54:17.653Z,14.6
2022-09-09T09:56:14.769Z,14.7
2022-09-09T09:57:12.595Z,14.6
2022-09-09T09:58:16.512Z,14.7
2022-09-09T09:59:13.398Z,14.8
2022-09-09T10:00:18.722Z,14.8
2022-09-09T10:01:13.676Z,14.8
2022-09-09T10:02:13.786Z,14.8
2022-09-09T10:03:14.669Z,14.8
2022-09-09T10:14:07.934Z,15
2022-09-09T10:15:20.869Z,15.1
2022-09-09T10:16:18.436Z,15
2022-09-09T10:17:16.978Z,15.1
2022-09-09T10:18:19.047Z,15.1
2022-09-09T10:19:12.004Z,15.2
2022-09-09T10:20:21.902Z,15.2
2022-09-09T10:21:11.164Z,15.2
2022-09-09T10:22:17.855Z,15.3
2022-09-09T10:23:15.618Z,15.3
2022-09-09T10:24:18.026Z,15.3
2022-09-09T10:25:13.330Z,15.3
2022-09-09T10:26:16.811Z,15.3
2022-09-09T10:27:18.572Z,15.3
2022-09-09T10:28:10.813Z,15.3
2022-09-09T10:29:20.953Z,15.3
2022-09-09T10:30:10.743Z,15.3
2022-09-09T10:31:23.271Z,15.4
2022-09-09T10:32:10.185Z,15.4
2022-09-09T10:33:14.967Z,15.4
2022-09-09T10:34:13.440Z,15.4
2022-09-09T10:37:15.659Z,15.4
2022-09-09T10:38:14.424Z,15.4
2022-09-09T10:39:15.340Z,15.4
2022-09-09T10:40:11.738Z,15.5
2022-09-09T10:41:15.468Z,15.6
2022-09-09T10:42:10.824Z,15.6
2022-09-09T10:43:15.596Z,15.6
2022-09-09T10:44:14.680Z,15.7
2022-09-09T10:45:16.469Z,15.8
2022-09-09T10:46:15.331Z,15.8
2022-09-09T10:47:11.560Z,15.8
2022-09-09T10:48:07.195Z,15.8
2022-09-09T10:49:22.136Z,15.8
2022-09-09T10:50:15.529Z,15.8
2022-09-09T10:51:15.909Z,15.9
2022-09-09T10:52:17.287Z,15.9
2022-09-09T10:53:14.301Z,15.9
2022-09-09T10:54:16.340Z,15.9
2022-09-09T10:55:15.185Z,15.9
2022-09-09T10:56:13.577Z,15.9
2022-09-09T10:57:12.538Z,16
2022-09-09T10:58:21.698Z,16.1
2022-09-09T10:59:08.643Z,16.1
2022-09-09T11:00:10.749Z,16.2
2022-09-09T11:01:14.200Z,16.1
2022-09-09T11:02:17.101Z,16.1
2022-09-09T11:03:16.396Z,16.1
2022-09-09T11:04:16.536Z,16.1
2022-09-09T11:05:17.831Z,16.1
2022-09-09T11:06:13.533Z,16.1
2022-09-09T11:07:15.185Z,16.2
2022-09-09T11:08:16.845Z,16.2
2022-09-09T11:09:16.726Z,16.1
2022-09-09T11:10:11.136Z,16.2
2022-09-09T11:11:15.179Z,16.2
2022-09-09T11:12:15.812Z,16.2
2022-09-09T11:13:16.026Z,16.3
2022-09-09T11:14:15.375Z,16.3
2022-09-09T11:15:15.488Z,16.3
2022-09-09T11:16:17.897Z,16.3
2022-09-09T11:17:13.665Z,16.3
2022-09-09T11:18:19.068Z,16.3
2022-09-09T11:19:15.858Z,16.4
2022-09-09T11:20:17.518Z,16.5
2022-09-09T11:21:13.644Z,16.4
2022-09-09T11:22:16.813Z,16.4
2022-09-09T11:23:12.393Z,16.5
2022-09-09T11:24:16.069Z,16.4
2022-09-09T11:25:14.946Z,16.6
2022-09-09T11:26:14.423Z,16.6
2022-09-09T11:27:14.755Z,16.6
2022-09-09T11:28:15.444Z,16.6
2022-09-09T11:29:15.816Z,16.6
2022-09-09T11:30:27.426Z,16.8
2022-09-09T11:31:12.959Z,16.8
2022-09-09T11:32:09.028Z,16.8
2022-09-09T11:33:15.115Z,16.9
2022-09-09T11:34:10.841Z,16.9
2022-09-09T11:35:14.807Z,17.1
2022-09-09T11:36:11.513Z,17.2
2022-09-09T11:37:16.298Z,17.1
2022-09-09T11:38:14.888Z,17.1
2022-09-09T11:39:14.114Z,17.3
2022-09-09T11:40:16.576Z,17.4
2022-09-09T11:41:09.895Z,17.4
2022-09-09T11:42:15.133Z,17.4
2022-09-09T11:43:16.408Z,17.5
2022-09-09T11:44:11.503Z,17.6
2022-09-09T11:45:13.001Z,17.6
2022-09-09T11:46:12.974Z,17.6
2022-09-09T11:47:11.993Z,17.6
2022-09-09T11:48:15.592Z,17.6
2022-09-09T11:49:14.432Z,17.6
2022-09-09T11:50:16.183Z,17.6
2022-09-09T11:51:17.205Z,17.6
2022-09-09T11:52:15.014Z,17.6
2022-09-09T11:53:14.854Z,17.4
2022-09-09T11:54:13.609Z,17.4
2022-09-09T11:55:14.567Z,17.5
2022-09-09T11:56:13.195Z,17.5
2022-09-09T11:57:13.199Z,17.4
2022-09-09T11:58:11.587Z,17.5
2022-09-09T11:59:13.799Z,17.5
2022-09-09T12:00:15.419Z,17.5
2022-09-09T12:01:10.604Z,17.6
2022-09-09T12:02:15.812Z,17.6
2022-09-09T12:04:12.001Z,18
2022-09-09T12:05:13.710Z,18.2
2022-09-09T12:06:07.506Z,18.2
2022-09-09T12:07:14.914Z,18.2
2022-09-09T12:08:11.901Z,18.3
2022-09-09T12:09:14.192Z,18.3
2022-09-09T12:10:08.750Z,18.3
2022-09-09T12:11:13.310Z,18.3
2022-09-09T12:12:14.358Z,18.3
2022-09-09T12:13:15.297Z,18.3
2022-09-09T12:14:08.698Z,18.3
2022-09-09T12:15:14.619Z,18.4
2022-09-09T12:16:15.641Z,18.4
2022-09-09T12:17:13.687Z,18.6
2022-09-09T12:18:15.191Z,18.5
2022-09-09T12:19:12.686Z,18.5
2022-09-09T12:20:15.053Z,18.6
2022-09-09T12:21:15.680Z,18.6
2022-09-09T12:22:12.869Z,18.6
2022-09-09T12:23:14.719Z,18.6
2022-09-09T12:24:16.266Z,18.6
2022-09-09T12:25:14.957Z,18.7
2022-09-09T12:26:15.382Z,18.8
2022-09-09T12:27:08.416Z,18.8
2022-09-09T12:28:11.929Z,19.5
2022-09-09T12:29:13.315Z,19.7
2022-09-09T12:30:09.597Z,19.9
2022-09-09T12:31:13.004Z,19.9
2022-09-09T12:32:14.713Z,19.8
2022-09-09T12:33:13.453Z,19.8
2022-09-09T12:34:13.791Z,19.8
2022-09-09T12:35:17.036Z,19.6
2022-09-09T12:36:10.468Z,19.4
2022-09-09T12:37:16.345Z,19.5
2022-09-09T12:38:10.928Z,19.6
2022-09-09T12:39:14.563Z,19.6
2022-09-09T12:40:11.540Z,19.6
2022-09-09T12:41:13.197Z,19.6
2022-09-09T12:42:14.680Z,19.6
2022-09-09T12:43:14.635Z,19.6
2022-09-09T12:44:08.066Z,19.5
2022-09-09T12:45:14.209Z,19.6
2022-09-09T12:46:12.543Z,19.6
2022-09-09T12:47:13.867Z,19.6
2022-09-09T12:48:13.716Z,19.6
2022-09-09T12:57:12.402Z,19.6
2022-09-09T12:58:07.961Z,19.6
2022-09-09T12:59:09.868Z,20
2022-09-09T13:00:13.555Z,20
2022-09-09T13:01:12.632Z,20.1
2022-09-09T13:02:13.086Z,20.1
2022-09-09T13:03:11.347Z,20.3
2022-09-09T13:04:16.973Z,20.2
2022-09-09T13:05:16.095Z,20.2
2022-09-09T13:06:14.550Z,20.1
2022-09-09T13:07:12.920Z,20.2
2022-09-09T13:08:18.556Z,20.4
2022-09-09T13:09:11.896Z,20.4
2022-09-09T13:10:15.292Z,20.6
2022-09-09T13:11:16.657Z,20.6
2022-09-09T13:12:15.409Z,20.6
2022-09-09T13:13:19.056Z,20.6
2022-09-09T13:14:08.926Z,20.6
2022-09-09T13:15:10.188Z,20.7
2022-09-09T13:16:12.978Z,20.7
2022-09-09T13:17:12.548Z,20.9
2022-09-09T13:18:15.830Z,20.8
2022-09-09T13:19:12.855Z,20.4
2022-09-09T13:20:16.708Z,20.4
2022-09-09T13:21:11.655Z,20.8
2022-09-09T13:22:10.954Z,20.8
2022-09-09T13:23:13.113Z,20.8
2022-09-09T13:24:12.604Z,20.8
2022-09-09T13:25:14.121Z,20.8
2022-09-09T13:26:11.616Z,20.8
2022-09-09T13:27:13.471Z,20.4
2022-09-09T13:28:13.832Z,20.6
2022-09-09T13:29:07.141Z,20.6
2022-09-09T13:30:13.402Z,20.9
2022-09-09T13:31:14.176Z,20.9
2022-09-09T13:32:15.053Z,20.9
2022-09-09T13:33:15.628Z,20.9
2022-09-09T13:34:13.341Z,21.3
2022-09-09T13:35:16.074Z,21.4
2022-09-09T13:36:14.222Z,21.4
2022-09-09T13:37:12.431Z,21.3
2022-09-09T13:38:06.815Z,21.1
2022-09-09T13:39:17.786Z,21.1
2022-09-09T13:40:11.868Z,21.1
2022-09-09T13:41:12.444Z,20.9
2022-09-09T13:42:14.477Z,21.1
2022-09-09T13:43:12.913Z,21.1
2022-09-09T13:44:17.754Z,21.2
2022-09-09T13:45:12.820Z,21.2
2022-09-09T13:46:13.495Z,20.7